Fife, Texas
Current Conditions -  °F | °C
As of 10:15 AM on Thursday 30 Oct 2014 (Local Time) from KBBD Reporting Station
Overcast Overcast  
Wind Chill: 64°   Ceiling: 800
Heat Index: 64°   Visibility: 8mi
Dew Point: 61°   Wind: 7mph
Humidity: 88%   Direction: 160°SSE
Pressure: 30.16"   Gusts: NA
Location:  31.063°N, 99.3372°W
Report Text: KBBD 301515Z AUTO 16006KT 8SM OVC008 18/16 A3016 RMK
Loading
Personal Weather Stations






























Interactive Weather Map
Tropical Storm Tracking
New forecast layout! Learn more

10-Day Weather Forecast

Advertisements
Track Severe Weather on mobile